createdAt,value
2022-09-11T00:04:14.488Z,9.87
2022-09-11T00:09:16.859Z,10.20
2022-09-11T00:14:20.172Z,11.27
2022-09-11T00:19:22.761Z,11.37
2022-09-11T00:24:25.192Z,11.90
2022-09-11T00:29:27.801Z,11.33
2022-09-11T00:34:30.203Z,10.37
2022-09-11T00:39:32.772Z,11.40
2022-09-11T00:44:35.125Z,10.90
2022-09-11T00:49:48.255Z,9.60
2022-09-11T00:55:14.660Z,10.63
2022-09-11T01:00:17.107Z,10.53
2022-09-11T01:05:22.519Z,10.33
2022-09-11T01:10:42.499Z,10.50
2022-09-11T01:16:17.991Z,9.10
2022-09-11T01:22:08.766Z,13.93
2022-09-11T01:27:35.544Z,12.03
2022-09-11T01:32:43.520Z,11.13
2022-09-11T01:37:59.703Z,14.17
2022-09-11T01:43:10.208Z,13.10
2022-09-11T01:48:20.599Z,13.90
2022-09-11T01:53:28.993Z,10.40
2022-09-11T01:58:36.426Z,9.80
2022-09-11T02:03:51.325Z,8.13
2022-09-11T02:09:03.265Z,8.57
2022-09-11T02:14:10.436Z,8.53
2022-09-11T02:19:16.638Z,8.93
2022-09-11T02:24:22.825Z,8.30
2022-09-11T02:29:26.732Z,7.40
2022-09-11T02:34:35.574Z,9.17
2022-09-11T02:40:22.113Z,9.33
2022-09-11T02:45:36.970Z,9.50
2022-09-11T02:51:06.540Z,10.80
2022-09-11T02:56:15.966Z,9.80
2022-09-11T03:01:18.515Z,10.27
2022-09-11T03:06:25.264Z,10.17
2022-09-11T03:11:27.961Z,10.43
2022-09-11T03:16:31.335Z,10.97
2022-09-11T03:21:37.910Z,10.53
2022-09-11T03:26:40.630Z,12.00
2022-09-11T03:31:43.206Z,13.37
2022-09-11T03:36:48.143Z,11.97
2022-09-11T03:41:51.570Z,13.53
2022-09-11T03:46:54.106Z,12.80
2022-09-11T03:51:57.150Z,13.90
2022-09-11T03:57:00.043Z,16.17
2022-09-11T04:02:02.735Z,15.70
2022-09-11T04:07:05.843Z,19.80
2022-09-11T04:12:08.771Z,20.63
2022-09-11T04:17:11.274Z,16.53
2022-09-11T04:22:14.620Z,15.93
2022-09-11T04:27:18.432Z,16.23
2022-09-11T04:32:23.054Z,16.87
2022-09-11T04:37:26.392Z,16.77
2022-09-11T04:42:29.369Z,15.07
2022-09-11T04:47:32.186Z,16.90
2022-09-11T04:52:34.690Z,16.67
2022-09-11T04:57:37.984Z,17.30
2022-09-11T05:02:40.741Z,16.70
2022-09-11T05:07:44.277Z,16.90
2022-09-11T05:12:47.530Z,18.03
2022-09-11T05:17:50.803Z,17.53
2022-09-11T05:22:55.826Z,16.00
2022-09-11T05:27:58.489Z,17.37
2022-09-11T05:33:01.031Z,14.93
2022-09-11T05:38:03.600Z,15.90
2022-09-11T05:43:06.782Z,15.67
2022-09-11T05:48:10.282Z,16.07
2022-09-11T05:53:14.180Z,17.67
2022-09-11T05:58:17.518Z,15.27
2022-09-11T06:03:20.212Z,16.27
2022-09-11T06:08:23.356Z,16.50
2022-09-11T06:13:29.985Z,18.90
2022-09-11T06:18:34.944Z,17.53
2022-09-11T06:23:41.719Z,16.47
2022-09-11T06:28:47.679Z,16.20
2022-09-11T06:33:51.411Z,15.20
2022-09-11T06:38:57.254Z,15.80
2022-09-11T06:44:02.086Z,14.03
2022-09-11T06:49:06.585Z,13.90
2022-09-11T06:54:19.587Z,11.63
2022-09-11T06:59:23.951Z,11.27
2022-09-11T07:04:26.690Z,10.50
2022-09-11T07:09:29.471Z,10.00
2022-09-11T07:14:33.190Z,9.50
2022-09-11T07:19:46.849Z,8.50
2022-09-11T07:24:55.002Z,8.37
2022-09-11T07:29:58.188Z,8.40
2022-09-11T07:35:02.614Z,8.20
2022-09-11T07:40:05.602Z,10.23
2022-09-11T07:45:10.329Z,8.80
2022-09-11T07:50:13.027Z,9.30
2022-09-11T07:55:16.609Z,9.13
2022-09-11T08:00:19.846Z,8.20
2022-09-11T08:05:36.272Z,13.00
2022-09-11T08:10:40.912Z,14.70
2022-09-11T08:15:51.198Z,12.47
2022-09-11T08:21:02.909Z,10.07
2022-09-11T08:26:07.196Z,10.13
2022-09-11T08:31:13.808Z,7.57
2022-09-11T08:36:16.532Z,8.97
2022-09-11T08:41:24.469Z,9.00
2022-09-11T08:46:34.691Z,6.30
2022-09-11T08:51:37.953Z,7.43
2022-09-11T08:56:41.948Z,6.57
2022-09-11T09:02:22.255Z,6.30
2022-09-11T09:07:49.842Z,5.77
2022-09-11T09:13:00.058Z,6.30
2022-09-11T09:18:15.109Z,5.70
2022-09-11T09:23:24.716Z,6.10
2022-09-11T09:28:34.888Z,5.27
2022-09-11T09:33:56.735Z,35.30
2022-09-11T09:38:59.792Z,5.43
2022-09-11T09:44:18.972Z,5.10
2022-09-11T09:49:29.468Z,4.13
2022-09-11T09:54:36.476Z,3.20
2022-09-11T09:59:55.815Z,2.87
2022-09-11T10:05:16.954Z,2.20
2022-09-11T10:10:31.289Z,2.30
2022-09-11T10:15:38.820Z,2.53
2022-09-11T10:20:41.516Z,2.53
2022-09-11T10:25:50.001Z,1.93
2022-09-11T10:31:05.004Z,2.93
2022-09-11T10:36:12.027Z,2.10
2022-09-11T10:41:14.613Z,1.43
2022-09-11T10:46:40.854Z,1.90
2022-09-11T10:52:02.004Z,1.53
2022-09-11T10:57:18.005Z,1.67
2022-09-11T11:02:43.025Z,2.50
2022-09-11T11:08:00.321Z,2.20
2022-09-11T11:13:28.407Z,2.30
2022-09-11T11:18:56.925Z,2.87
2022-09-11T11:24:40.339Z,3.50
2022-09-11T11:29:50.630Z,3.53
2022-09-11T11:35:12.957Z,3.70
2022-09-11T11:40:36.678Z,3.10
2022-09-11T11:45:47.091Z,3.57
2022-09-11T11:50:53.018Z,3.60
2022-09-11T11:56:34.455Z,4.00
2022-09-11T12:01:54.594Z,4.37
2022-09-11T12:06:59.269Z,4.20
2022-09-11T12:12:06.559Z,4.23
2022-09-11T12:17:33.022Z,4.23
2022-09-11T12:22:39.154Z,4.73
2022-09-11T12:27:43.224Z,4.63
2022-09-11T12:33:40.695Z,5.03
2022-09-11T12:38:48.926Z,4.17
2022-09-11T12:43:54.391Z,4.27
2022-09-11T12:49:20.900Z,3.90
2022-09-11T12:54:33.506Z,3.77
2022-09-11T12:59:45.590Z,3.87
2022-09-11T13:04:48.788Z,3.80
2022-09-11T13:09:52.353Z,4.03
2022-09-11T13:14:56.386Z,4.33
2022-09-11T13:20:18.192Z,4.50
2022-09-11T13:25:23.400Z,4.00
2022-09-11T13:30:27.206Z,4.30
2022-09-11T13:35:30.261Z,5.03
2022-09-11T13:40:44.532Z,4.70
2022-09-11T13:45:47.573Z,5.20
2022-09-11T13:50:51.667Z,4.67
2022-09-11T13:55:54.051Z,4.70
2022-09-11T14:00:56.520Z,4.73
2022-09-11T14:06:01.379Z,4.40
2022-09-11T14:11:11.853Z,4.50
2022-09-11T14:16:14.444Z,4.10
2022-09-11T14:21:23.045Z,4.47
2022-09-11T14:26:41.051Z,4.23
2022-09-11T14:31:44.469Z,3.50
2022-09-11T14:37:12.190Z,3.87
2022-09-11T14:42:23.277Z,3.50
2022-09-11T14:47:28.930Z,3.63
2022-09-11T14:52:32.062Z,3.97
2022-09-11T14:57:35.224Z,3.40
2022-09-11T15:02:37.596Z,3.60
2022-09-11T15:07:39.996Z,3.50
2022-09-11T15:12:42.836Z,3.20
2022-09-11T15:17:46.517Z,3.23
2022-09-11T15:22:49.003Z,2.90
2022-09-11T15:27:52.759Z,3.57
2022-09-11T15:32:55.621Z,3.07
2022-09-11T15:37:58.689Z,3.00
2022-09-11T15:43:01.090Z,2.63
2022-09-11T15:48:03.551Z,2.57
2022-09-11T15:53:06.295Z,3.07
2022-09-11T15:58:08.760Z,2.80
2022-09-11T16:03:11.980Z,2.77
2022-09-11T16:08:15.465Z,2.73
2022-09-11T16:13:20.180Z,2.97
2022-09-11T16:18:22.506Z,2.80
2022-09-11T16:23:26.739Z,2.87
2022-09-11T16:28:29.096Z,2.80
2022-09-11T16:33:32.933Z,2.80
2022-09-11T16:38:38.618Z,3.00
2022-09-11T16:43:43.480Z,3.20
2022-09-11T16:48:51.897Z,3.20
2022-09-11T16:53:56.996Z,3.10
2022-09-11T16:58:59.412Z,3.37
2022-09-11T17:04:03.761Z,3.20
2022-09-11T17:09:06.281Z,3.30
2022-09-11T17:14:08.739Z,2.77
2022-09-11T17:19:11.228Z,2.90
2022-09-11T17:24:14.140Z,3.00
2022-09-11T17:29:19.560Z,2.97
2022-09-11T17:34:22.217Z,3.03
2022-09-11T17:39:24.552Z,3.37
2022-09-11T17:44:26.999Z,2.97
2022-09-11T17:49:31.955Z,3.13
2022-09-11T17:54:34.408Z,4.17
2022-09-11T17:59:36.890Z,4.57
2022-09-11T18:04:39.268Z,5.20
2022-09-11T18:09:41.802Z,4.90
2022-09-11T18:14:44.247Z,5.40
2022-09-11T18:19:46.865Z,7.13
2022-09-11T18:24:50.944Z,5.33
2022-09-11T18:29:54.571Z,5.97
2022-09-11T18:35:00.074Z,5.80
2022-09-11T18:40:03.167Z,4.33
2022-09-11T18:45:06.619Z,7.80
2022-09-11T18:50:09.911Z,4.87
2022-09-11T18:55:12.303Z,4.90
2022-09-11T19:00:17.068Z,4.47
2022-09-11T19:05:19.532Z,3.97
2022-09-11T19:10:21.987Z,4.50
2022-09-11T19:15:25.223Z,5.20
2022-09-11T19:20:27.665Z,5.10
2022-09-11T19:25:30.246Z,5.27
2022-09-11T19:30:32.612Z,4.70
2022-09-11T19:35:35.202Z,4.37
2022-09-11T19:40:37.809Z,5.13
2022-09-11T19:45:40.260Z,5.13
2022-09-11T19:50:44.150Z,6.07
2022-09-11T19:55:46.543Z,6.17
2022-09-11T20:00:49.250Z,5.83
2022-09-11T20:05:54.051Z,6.07
2022-09-11T20:10:56.511Z,4.97
2022-09-11T20:16:03.824Z,5.33
2022-09-11T20:21:08.837Z,4.43
2022-09-11T20:26:17.655Z,5.63
2022-09-11T20:31:29.798Z,5.10
2022-09-11T20:36:32.871Z,4.27
2022-09-11T20:41:37.016Z,4.00
2022-09-11T20:46:39.613Z,3.97
2022-09-11T20:51:42.059Z,4.33
2022-09-11T20:56:44.524Z,4.07
2022-09-11T21:01:49.155Z,3.87
2022-09-11T21:06:55.041Z,4.27
2022-09-11T21:11:57.484Z,4.00
2022-09-11T21:17:02.490Z,4.40
2022-09-11T21:22:04.962Z,3.60
2022-09-11T21:27:07.392Z,4.00
2022-09-11T21:32:12.281Z,4.20
2022-09-11T21:37:15.128Z,4.03
2022-09-11T21:42:17.526Z,4.03
2022-09-11T21:47:19.994Z,3.60
2022-09-11T21:52:22.367Z,3.93
2022-09-11T21:57:28.997Z,3.57
2022-09-11T22:02:31.409Z,3.93
2022-09-11T22:07:34.432Z,3.83
2022-09-11T22:12:36.841Z,3.77
2022-09-11T22:17:39.293Z,4.07
2022-09-11T22:22:41.753Z,3.53
2022-09-11T22:27:45.855Z,4.40
2022-09-11T22:32:48.291Z,4.10
2022-09-11T22:37:51.108Z,4.00
2022-09-11T22:42:53.936Z,4.50
2022-09-11T22:47:56.604Z,4.40
2022-09-11T22:52:59.008Z,4.67
2022-09-11T22:58:01.447Z,4.37
2022-09-11T23:03:03.917Z,4.50
2022-09-11T23:08:06.371Z,4.70
2022-09-11T23:13:08.772Z,4.60
2022-09-11T23:18:11.191Z,5.30
2022-09-11T23:23:13.540Z,4.50
2022-09-11T23:28:15.927Z,4.80
2022-09-11T23:33:18.330Z,3.97
2022-09-11T23:38:20.971Z,4.27
2022-09-11T23:43:23.403Z,4.67
2022-09-11T23:48:25.813Z,4.77
2022-09-11T23:53:29.282Z,4.87
2022-09-11T23:58:31.684Z,4.13
